sensor_id;sensor_type;location;lat;lon;timestamp;temperature;humidity
30288;DHT22;17103;48.316;11.558;2022-07-25T00:01:02;29.00;36.80
30288;DHT22;17103;48.316;11.558;2022-07-25T00:03:28;29.00;36.80
30288;DHT22;17103;48.316;11.558;2022-07-25T00:05:54;28.90;36.90
30288;DHT22;17103;48.316;11.558;2022-07-25T00:08:23;28.90;37.00
30288;DHT22;17103;48.316;11.558;2022-07-25T00:10:51;28.50;37.00
30288;DHT22;17103;48.316;11.558;2022-07-25T00:13:17;28.80;37.10
30288;DHT22;17103;48.316;11.558;2022-07-25T00:15:43;28.70;37.10
30288;DHT22;17103;48.316;11.558;2022-07-25T00:18:09;28.70;37.20
30288;DHT22;17103;48.316;11.558;2022-07-25T00:20:34;28.70;37.30
30288;DHT22;17103;48.316;11.558;2022-07-25T00:23:00;28.60;37.40
30288;DHT22;17103;48.316;11.558;2022-07-25T00:25:26;28.60;37.50
30288;DHT22;17103;48.316;11.558;2022-07-25T00:27:51;28.60;37.60
30288;DHT22;17103;48.316;11.558;2022-07-25T00:30:17;28.50;37.60
30288;DHT22;17103;48.316;11.558;2022-07-25T00:32:43;28.50;37.70
30288;DHT22;17103;48.316;11.558;2022-07-25T00:35:09;28.50;37.80
30288;DHT22;17103;48.316;11.558;2022-07-25T00:37:34;28.40;37.80
30288;DHT22;17103;48.316;11.558;2022-07-25T00:40:00;28.40;37.90
30288;DHT22;17103;48.316;11.558;2022-07-25T00:42:26;28.40;38.00
30288;DHT22;17103;48.316;11.558;2022-07-25T00:44:52;28.30;38.00
30288;DHT22;17103;48.316;11.558;2022-07-25T00:47:18;28.30;38.00
30288;DHT22;17103;48.316;11.558;2022-07-25T00:49:47;28.30;38.10
30288;DHT22;17103;48.316;11.558;2022-07-25T00:52:13;28.20;38.30
30288;DHT22;17103;48.316;11.558;2022-07-25T00:54:38;28.20;38.20
30288;DHT22;17103;48.316;11.558;2022-07-25T00:57:04;28.20;38.20
30288;DHT22;17103;48.316;11.558;2022-07-25T00:59:30;28.20;38.30
30288;DHT22;17103;48.316;11.558;2022-07-25T01:01:58;28.20;38.40
30288;DHT22;17103;48.316;11.558;2022-07-25T01:04:24;28.10;38.50
30288;DHT22;17103;48.316;11.558;2022-07-25T01:06:50;28.10;38.60
30288;DHT22;17103;48.316;11.558;2022-07-25T01:09:16;28.00;38.50
30288;DHT22;17103;48.316;11.558;2022-07-25T01:11:42;28.00;38.60
30288;DHT22;17103;48.316;11.558;2022-07-25T01:14:08;28.00;38.70
30288;DHT22;17103;48.316;11.558;2022-07-25T01:16:34;27.90;38.70
30288;DHT22;17103;48.316;11.558;2022-07-25T01:19:00;27.90;38.80
30288;DHT22;17103;48.316;11.558;2022-07-25T01:21:26;27.90;38.90
30288;DHT22;17103;48.316;11.558;2022-07-25T01:23:52;27.80;39.00
30288;DHT22;17103;48.316;11.558;2022-07-25T01:26:17;27.80;39.10
30288;DHT22;17103;48.316;11.558;2022-07-25T01:28:43;27.70;39.00
30288;DHT22;17103;48.316;11.558;2022-07-25T01:31:09;27.70;39.20
30288;DHT22;17103;48.316;11.558;2022-07-25T01:33:34;27.70;39.20
30288;DHT22;17103;48.316;11.558;2022-07-25T01:36:00;27.70;39.30
30288;DHT22;17103;48.316;11.558;2022-07-25T01:38:26;27.60;39.40
30288;DHT22;17103;48.316;11.558;2022-07-25T01:40:52;27.60;39.30
30288;DHT22;17103;48.316;11.558;2022-07-25T01:43:18;27.60;39.60
30288;DHT22;17103;48.316;11.558;2022-07-25T01:45:43;27.50;39.60
30288;DHT22;17103;48.316;11.558;2022-07-25T01:48:09;27.50;39.60
30288;DHT22;17103;48.316;11.558;2022-07-25T01:50:35;27.50;39.70
30288;DHT22;17103;48.316;11.558;2022-07-25T01:53:00;27.50;39.70
30288;DHT22;17103;48.316;11.558;2022-07-25T01:55:26;27.40;39.70
30288;DHT22;17103;48.316;11.558;2022-07-25T01:57:52;27.40;39.70
30288;DHT22;17103;48.316;11.558;2022-07-25T02:00:18;27.40;39.80
30288;DHT22;17103;48.316;11.558;2022-07-25T02:02:44;27.40;39.90
30288;DHT22;17103;48.316;11.558;2022-07-25T02:05:11;27.40;39.90
30288;DHT22;17103;48.316;11.558;2022-07-25T02:07:38;27.40;40.00
30288;DHT22;17103;48.316;11.558;2022-07-25T02:10:05;27.30;40.00
30288;DHT22;17103;48.316;11.558;2022-07-25T02:12:31;27.10;39.90
30288;DHT22;17103;48.316;11.558;2022-07-25T02:14:59;27.30;40.10
30288;DHT22;17103;48.316;11.558;2022-07-25T02:17:25;27.30;40.20
30288;DHT22;17103;48.316;11.558;2022-07-25T02:19:51;27.20;40.10
30288;DHT22;17103;48.316;11.558;2022-07-25T02:22:16;27.20;40.10
30288;DHT22;17103;48.316;11.558;2022-07-25T02:24:42;27.20;40.20
30288;DHT22;17103;48.316;11.558;2022-07-25T02:27:08;27.20;40.20
30288;DHT22;17103;48.316;11.558;2022-07-25T02:29:34;27.10;40.20
30288;DHT22;17103;48.316;11.558;2022-07-25T02:32:00;27.10;40.30
30288;DHT22;17103;48.316;11.558;2022-07-25T02:34:26;27.10;40.40
30288;DHT22;17103;48.316;11.558;2022-07-25T02:36:52;27.10;40.40
30288;DHT22;17103;48.316;11.558;2022-07-25T02:39:18;27.00;40.30
30288;DHT22;17103;48.316;11.558;2022-07-25T02:41:45;27.00;40.50
30288;DHT22;17103;48.316;11.558;2022-07-25T02:44:11;27.00;40.40
30288;DHT22;17103;48.316;11.558;2022-07-25T02:46:36;27.00;40.50
30288;DHT22;17103;48.316;11.558;2022-07-25T02:49:02;27.00;40.50
30288;DHT22;17103;48.316;11.558;2022-07-25T02:51:28;27.00;40.50
30288;DHT22;17103;48.316;11.558;2022-07-25T02:53:54;26.90;40.50
30288;DHT22;17103;48.316;11.558;2022-07-25T02:56:20;26.90;40.60
30288;DHT22;17103;48.316;11.558;2022-07-25T02:58:46;26.90;40.60
30288;DHT22;17103;48.316;11.558;2022-07-25T03:01:13;26.90;40.60
30288;DHT22;17103;48.316;11.558;2022-07-25T03:03:39;26.90;40.80
30288;DHT22;17103;48.316;11.558;2022-07-25T03:06:05;26.80;40.70
30288;DHT22;17103;48.316;11.558;2022-07-25T03:08:30;26.80;40.80
30288;DHT22;17103;48.316;11.558;2022-07-25T03:10:56;26.80;40.80
30288;DHT22;17103;48.316;11.558;2022-07-25T03:13:23;26.80;40.90
30288;DHT22;17103;48.316;11.558;2022-07-25T03:15:49;26.70;40.90
30288;DHT22;17103;48.316;11.558;2022-07-25T03:18:14;26.80;41.00
30288;DHT22;17103;48.316;11.558;2022-07-25T03:20:40;26.70;40.90
30288;DHT22;17103;48.316;11.558;2022-07-25T03:23:06;26.70;41.00
30288;DHT22;17103;48.316;11.558;2022-07-25T03:25:31;26.70;41.10
30288;DHT22;17103;48.316;11.558;2022-07-25T03:27:59;26.70;41.10
30288;DHT22;17103;48.316;11.558;2022-07-25T03:30:25;26.70;41.20
30288;DHT22;17103;48.316;11.558;2022-07-25T03:32:50;26.70;41.20
30288;DHT22;17103;48.316;11.558;2022-07-25T03:35:17;26.70;41.20
30288;DHT22;17103;48.316;11.558;2022-07-25T03:37:43;26.50;41.20
30288;DHT22;17103;48.316;11.558;2022-07-25T03:40:09;26.60;41.20
30288;DHT22;17103;48.316;11.558;2022-07-25T03:42:35;26.60;41.30
30288;DHT22;17103;48.316;11.558;2022-07-25T03:45:02;26.60;41.30
30288;DHT22;17103;48.316;11.558;2022-07-25T03:47:28;26.60;41.50
30288;DHT22;17103;48.316;11.558;2022-07-25T03:49:54;26.60;41.40
30288;DHT22;17103;48.316;11.558;2022-07-25T03:52:19;26.60;41.50
30288;DHT22;17103;48.316;11.558;2022-07-25T03:54:45;26.60;41.50
30288;DHT22;17103;48.316;11.558;2022-07-25T03:57:11;26.60;41.60
30288;DHT22;17103;48.316;11.558;2022-07-25T03:59:37;26.50;41.60
30288;DHT22;17103;48.316;11.558;2022-07-25T04:02:03;26.50;41.70
30288;DHT22;17103;48.316;11.558;2022-07-25T04:04:29;26.50;41.70
30288;DHT22;17103;48.316;11.558;2022-07-25T04:06:55;26.50;41.70
30288;DHT22;17103;48.316;11.558;2022-07-25T04:09:21;26.40;41.60
30288;DHT22;17103;48.316;11.558;2022-07-25T04:11:46;26.40;41.50
30288;DHT22;17103;48.316;11.558;2022-07-25T04:14:12;26.40;41.60
30288;DHT22;17103;48.316;11.558;2022-07-25T04:16:38;26.40;41.60
30288;DHT22;17103;48.316;11.558;2022-07-25T04:19:04;26.30;41.70
30288;DHT22;17103;48.316;11.558;2022-07-25T04:21:30;26.20;41.70
30288;DHT22;17103;48.316;11.558;2022-07-25T04:23:55;26.20;41.90
30288;DHT22;17103;48.316;11.558;2022-07-25T04:26:21;26.20;41.90
30288;DHT22;17103;48.316;11.558;2022-07-25T04:28:47;26.10;42.10
30288;DHT22;17103;48.316;11.558;2022-07-25T04:31:13;26.10;42.20
30288;DHT22;17103;48.316;11.558;2022-07-25T04:33:39;26.00;42.30
30288;DHT22;17103;48.316;11.558;2022-07-25T04:36:06;26.00;42.40
30288;DHT22;17103;48.316;11.558;2022-07-25T04:38:32;26.00;42.50
30288;DHT22;17103;48.316;11.558;2022-07-25T04:40:58;25.90;42.60
30288;DHT22;17103;48.316;11.558;2022-07-25T04:43:23;25.90;42.50
30288;DHT22;17103;48.316;11.558;2022-07-25T04:45:49;25.90;42.60
30288;DHT22;17103;48.316;11.558;2022-07-25T04:48:15;25.90;42.70
30288;DHT22;17103;48.316;11.558;2022-07-25T04:50:40;25.90;42.80
30288;DHT22;17103;48.316;11.558;2022-07-25T04:53:06;25.90;42.90
30288;DHT22;17103;48.316;11.558;2022-07-25T04:55:33;25.80;43.00
30288;DHT22;17103;48.316;11.558;2022-07-25T04:57:59;25.90;43.20
30288;DHT22;17103;48.316;11.558;2022-07-25T05:00:25;25.90;43.30
30288;DHT22;17103;48.316;11.558;2022-07-25T05:02:51;25.90;43.30
30288;DHT22;17103;48.316;11.558;2022-07-25T05:05:17;25.60;43.20
30288;DHT22;17103;48.316;11.558;2022-07-25T05:07:43;25.90;43.30
30288;DHT22;17103;48.316;11.558;2022-07-25T05:10:09;25.90;43.50
30288;DHT22;17103;48.316;11.558;2022-07-25T05:12:35;25.90;43.50
30288;DHT22;17103;48.316;11.558;2022-07-25T05:15:01;25.90;43.60
30288;DHT22;17103;48.316;11.558;2022-07-25T05:17:27;25.80;43.60
30288;DHT22;17103;48.316;11.558;2022-07-25T05:19:54;25.80;43.70
30288;DHT22;17103;48.316;11.558;2022-07-25T05:22:19;25.90;43.80
30288;DHT22;17103;48.316;11.558;2022-07-25T05:24:45;25.90;44.00
30288;DHT22;17103;48.316;11.558;2022-07-25T05:27:11;25.90;44.10
30288;DHT22;17103;48.316;11.558;2022-07-25T05:29:36;25.90;44.20
30288;DHT22;17103;48.316;11.558;2022-07-25T05:32:02;25.90;44.20
30288;DHT22;17103;48.316;11.558;2022-07-25T05:34:28;25.90;44.30
30288;DHT22;17103;48.316;11.558;2022-07-25T05:36:54;25.90;44.30
30288;DHT22;17103;48.316;11.558;2022-07-25T05:39:19;25.90;44.40
30288;DHT22;17103;48.316;11.558;2022-07-25T05:41:45;25.90;44.50
30288;DHT22;17103;48.316;11.558;2022-07-25T05:44:10;25.90;44.50
30288;DHT22;17103;48.316;11.558;2022-07-25T05:46:36;26.00;44.40
30288;DHT22;17103;48.316;11.558;2022-07-25T05:49:02;26.00;44.40
30288;DHT22;17103;48.316;11.558;2022-07-25T05:51:27;26.00;44.30
30288;DHT22;17103;48.316;11.558;2022-07-25T05:53:54;26.10;44.50
30288;DHT22;17103;48.316;11.558;2022-07-25T05:56:21;26.10;44.60
30288;DHT22;17103;48.316;11.558;2022-07-25T05:58:46;26.10;44.60
30288;DHT22;17103;48.316;11.558;2022-07-25T06:01:14;26.10;44.70
30288;DHT22;17103;48.316;11.558;2022-07-25T06:03:40;26.20;44.80
30288;DHT22;17103;48.316;11.558;2022-07-25T06:06:09;26.10;44.80
30288;DHT22;17103;48.316;11.558;2022-07-25T06:08:36;26.20;45.20
30288;DHT22;17103;48.316;11.558;2022-07-25T06:11:03;26.30;45.10
30288;DHT22;17103;48.316;11.558;2022-07-25T06:13:30;26.30;45.30
30288;DHT22;17103;48.316;11.558;2022-07-25T06:15:56;26.30;45.10
30288;DHT22;17103;48.316;11.558;2022-07-25T06:18:22;26.40;45.20
30288;DHT22;17103;48.316;11.558;2022-07-25T06:20:48;26.30;45.10
30288;DHT22;17103;48.316;11.558;2022-07-25T06:23:15;26.40;45.10
30288;DHT22;17103;48.316;11.558;2022-07-25T06:25:41;26.40;44.80
30288;DHT22;17103;48.316;11.558;2022-07-25T06:28:06;26.50;45.20
30288;DHT22;17103;48.316;11.558;2022-07-25T06:30:33;26.60;45.10
30288;DHT22;17103;48.316;11.558;2022-07-25T06:32:59;26.60;45.20
30288;DHT22;17103;48.316;11.558;2022-07-25T06:35:25;26.70;45.10
30288;DHT22;17103;48.316;11.558;2022-07-25T06:37:50;26.70;45.10
30288;DHT22;17103;48.316;11.558;2022-07-25T06:40:16;26.80;44.90
30288;DHT22;17103;48.316;11.558;2022-07-25T06:42:44;26.80;44.80
30288;DHT22;17103;48.316;11.558;2022-07-25T06:45:11;26.90;45.00
30288;DHT22;17103;48.316;11.558;2022-07-25T06:47:37;26.90;44.90
30288;DHT22;17103;48.316;11.558;2022-07-25T06:50:06;27.00;45.00
30288;DHT22;17103;48.316;11.558;2022-07-25T06:52:33;27.00;44.90
30288;DHT22;17103;48.316;11.558;2022-07-25T06:54:59;27.10;44.80
30288;DHT22;17103;48.316;11.558;2022-07-25T06:57:24;27.10;44.90
30288;DHT22;17103;48.316;11.558;2022-07-25T06:59:50;27.20;45.00
30288;DHT22;17103;48.316;11.558;2022-07-25T07:02:16;27.20;45.00
30288;DHT22;17103;48.316;11.558;2022-07-25T07:04:41;27.30;45.00
30288;DHT22;17103;48.316;11.558;2022-07-25T07:07:07;27.40;45.30
30288;DHT22;17103;48.316;11.558;2022-07-25T07:09:33;27.40;44.90
30288;DHT22;17103;48.316;11.558;2022-07-25T07:12:01;27.40;44.80
30288;DHT22;17103;48.316;11.558;2022-07-25T07:14:34;27.50;45.00
30288;DHT22;17103;48.316;11.558;2022-07-25T07:17:02;27.50;44.90
30288;DHT22;17103;48.316;11.558;2022-07-25T07:19:28;27.60;45.00
30288;DHT22;17103;48.316;11.558;2022-07-25T07:21:53;27.60;44.60
30288;DHT22;17103;48.316;11.558;2022-07-25T07:24:19;27.70;44.80
30288;DHT22;17103;48.316;11.558;2022-07-25T07:26:45;27.70;44.30
30288;DHT22;17103;48.316;11.558;2022-07-25T07:29:11;27.80;44.60
30288;DHT22;17103;48.316;11.558;2022-07-25T07:31:36;27.90;44.90
30288;DHT22;17103;48.316;11.558;2022-07-25T07:34:02;27.90;45.00
30288;DHT22;17103;48.316;11.558;2022-07-25T07:36:28;28.00;44.50
30288;DHT22;17103;48.316;11.558;2022-07-25T07:38:54;28.00;44.60
30288;DHT22;17103;48.316;11.558;2022-07-25T07:41:20;28.10;44.70
30288;DHT22;17103;48.316;11.558;2022-07-25T07:43:45;28.20;44.70
30288;DHT22;17103;48.316;11.558;2022-07-25T07:46:11;28.20;44.70
30288;DHT22;17103;48.316;11.558;2022-07-25T07:48:40;28.30;44.80
30288;DHT22;17103;48.316;11.558;2022-07-25T07:51:05;28.30;44.70
30288;DHT22;17103;48.316;11.558;2022-07-25T07:53:32;28.30;44.20
30288;DHT22;17103;48.316;11.558;2022-07-25T07:56:17;28.40;44.50
30288;DHT22;17103;48.316;11.558;2022-07-25T07:58:43;28.50;43.80
30288;DHT22;17103;48.316;11.558;2022-07-25T08:01:10;28.50;43.80
30288;DHT22;17103;48.316;11.558;2022-07-25T08:03:39;28.60;44.10
30288;DHT22;17103;48.316;11.558;2022-07-25T08:06:04;28.60;44.30
30288;DHT22;17103;48.316;11.558;2022-07-25T08:08:30;28.70;44.50
30288;DHT22;17103;48.316;11.558;2022-07-25T08:10:56;28.70;43.90
30288;DHT22;17103;48.316;11.558;2022-07-25T08:13:28;28.80;44.00
30288;DHT22;17103;48.316;11.558;2022-07-25T08:16:13;28.80;44.10
30288;DHT22;17103;48.316;11.558;2022-07-25T08:18:39;28.90;43.80
30288;DHT22;17103;48.316;11.558;2022-07-25T08:21:05;29.00;44.00
30288;DHT22;17103;48.316;11.558;2022-07-25T08:23:32;29.10;44.00
30288;DHT22;17103;48.316;11.558;2022-07-25T08:26:03;29.20;43.90
30288;DHT22;17103;48.316;11.558;2022-07-25T08:28:31;29.30;43.90
30288;DHT22;17103;48.316;11.558;2022-07-25T08:30:56;29.40;43.80
30288;DHT22;17103;48.316;11.558;2022-07-25T08:33:23;29.40;43.60
30288;DHT22;17103;48.316;11.558;2022-07-25T08:35:52;29.50;43.70
30288;DHT22;17103;48.316;11.558;2022-07-25T08:38:21;29.60;43.80
30288;DHT22;17103;48.316;11.558;2022-07-25T08:40:51;29.70;43.60
30288;DHT22;17103;48.316;11.558;2022-07-25T08:43:17;29.80;43.50
30288;DHT22;17103;48.316;11.558;2022-07-25T08:45:46;29.80;43.10
30288;DHT22;17103;48.316;11.558;2022-07-25T08:48:12;29.90;43.20
30288;DHT22;17103;48.316;11.558;2022-07-25T08:50:39;30.00;43.20
30288;DHT22;17103;48.316;11.558;2022-07-25T08:53:04;30.10;43.10
30288;DHT22;17103;48.316;11.558;2022-07-25T08:55:30;30.20;42.90
30288;DHT22;17103;48.316;11.558;2022-07-25T08:57:56;30.20;42.40
30288;DHT22;17103;48.316;11.558;2022-07-25T09:00:25;30.30;42.60
30288;DHT22;17103;48.316;11.558;2022-07-25T09:03:03;30.30;42.50
30288;DHT22;17103;48.316;11.558;2022-07-25T09:05:33;30.40;42.60
30288;DHT22;17103;48.316;11.558;2022-07-25T09:08:13;30.50;42.30
30288;DHT22;17103;48.316;11.558;2022-07-25T09:10:45;30.60;42.50
30288;DHT22;17103;48.316;11.558;2022-07-25T09:13:12;30.70;42.50
30288;DHT22;17103;48.316;11.558;2022-07-25T09:15:45;30.70;41.90
30288;DHT22;17103;48.316;11.558;2022-07-25T09:18:13;30.80;41.70
30288;DHT22;17103;48.316;11.558;2022-07-25T09:20:57;30.90;41.80
30288;DHT22;17103;48.316;11.558;2022-07-25T09:23:37;31.00;41.50
30288;DHT22;17103;48.316;11.558;2022-07-25T09:26:04;31.10;41.20
30288;DHT22;17103;48.316;11.558;2022-07-25T09:28:48;31.20;40.40
30288;DHT22;17103;48.316;11.558;2022-07-25T09:31:16;31.30;40.40
30288;DHT22;17103;48.316;11.558;2022-07-25T09:33:48;31.40;39.50
30288;DHT22;17103;48.316;11.558;2022-07-25T09:36:14;31.40;39.60
30288;DHT22;17103;48.316;11.558;2022-07-25T09:38:56;31.50;39.60
30288;DHT22;17103;48.316;11.558;2022-07-25T09:41:34;31.50;39.80
30288;DHT22;17103;48.316;11.558;2022-07-25T09:44:00;31.50;39.80
30288;DHT22;17103;48.316;11.558;2022-07-25T09:46:32;31.60;40.00
30288;DHT22;17103;48.316;11.558;2022-07-25T09:48:59;31.70;40.10
30288;DHT22;17103;48.316;11.558;2022-07-25T09:51:25;31.80;40.00
30288;DHT22;17103;48.316;11.558;2022-07-25T09:53:51;31.90;40.10
30288;DHT22;17103;48.316;11.558;2022-07-25T09:56:17;32.00;39.60
30288;DHT22;17103;48.316;11.558;2022-07-25T09:58:43;32.10;39.70
30288;DHT22;17103;48.316;11.558;2022-07-25T10:01:10;32.20;39.80
30288;DHT22;17103;48.316;11.558;2022-07-25T10:08:54;32.50;39.10
30288;DHT22;17103;48.316;11.558;2022-07-25T10:11:22;32.60;39.30
30288;DHT22;17103;48.316;11.558;2022-07-25T10:13:49;32.70;39.20
30288;DHT22;17103;48.316;11.558;2022-07-25T10:16:19;32.70;39.10
30288;DHT22;17103;48.316;11.558;2022-07-25T10:18:56;32.80;37.90
30288;DHT22;17103;48.316;11.558;2022-07-25T10:21:24;32.80;37.80
30288;DHT22;17103;48.316;11.558;2022-07-25T10:24:07;32.90;38.90
30288;DHT22;17103;48.316;11.558;2022-07-25T10:26:50;32.90;38.20
30288;DHT22;17103;48.316;11.558;2022-07-25T10:29:17;33.00;38.30
30288;DHT22;17103;48.316;11.558;2022-07-25T10:31:44;33.10;37.30
30288;DHT22;17103;48.316;11.558;2022-07-25T10:34:10;33.20;37.30
30288;DHT22;17103;48.316;11.558;2022-07-25T10:39:59;33.30;37.30
30288;DHT22;17103;48.316;11.558;2022-07-25T10:42:25;33.50;37.60
30288;DHT22;17103;48.316;11.558;2022-07-25T10:44:57;33.50;37.30
30288;DHT22;17103;48.316;11.558;2022-07-25T10:47:26;33.60;37.00
30288;DHT22;17103;48.316;11.558;2022-07-25T10:49:58;33.70;36.30
30288;DHT22;17103;48.316;11.558;2022-07-25T10:52:27;33.70;36.40
30288;DHT22;17103;48.316;11.558;2022-07-25T10:54:58;34.00;35.80
30288;DHT22;17103;48.316;11.558;2022-07-25T10:57:25;33.90;35.10
30288;DHT22;17103;48.316;11.558;2022-07-25T11:00:06;33.90;33.50
30288;DHT22;17103;48.316;11.558;2022-07-25T11:02:32;34.10;32.80
30288;DHT22;17103;48.316;11.558;2022-07-25T11:05:03;34.00;33.00
30288;DHT22;17103;48.316;11.558;2022-07-25T11:07:29;34.10;31.70
30288;DHT22;17103;48.316;11.558;2022-07-25T11:10:02;34.20;32.60
30288;DHT22;17103;48.316;11.558;2022-07-25T11:12:28;34.20;31.20
30288;DHT22;17103;48.316;11.558;2022-07-25T11:15:05;34.20;30.70
30288;DHT22;17103;48.316;11.558;2022-07-25T11:17:32;34.20;30.20
30288;DHT22;17103;48.316;11.558;2022-07-25T11:20:01;34.20;30.20
30288;DHT22;17103;48.316;11.558;2022-07-25T11:22:28;34.30;30.80
30288;DHT22;17103;48.316;11.558;2022-07-25T11:24:54;34.40;30.30
30288;DHT22;17103;48.316;11.558;2022-07-25T11:29:52;34.50;30.10
30288;DHT22;17103;48.316;11.558;2022-07-25T11:32:21;34.50;29.70
30288;DHT22;17103;48.316;11.558;2022-07-25T11:34:51;34.50;30.00
30288;DHT22;17103;48.316;11.558;2022-07-25T11:37:19;34.60;30.70
30288;DHT22;17103;48.316;11.558;2022-07-25T11:39:46;34.70;30.50
30288;DHT22;17103;48.316;11.558;2022-07-25T11:42:17;34.80;30.00
30288;DHT22;17103;48.316;11.558;2022-07-25T11:44:49;34.90;29.90
30288;DHT22;17103;48.316;11.558;2022-07-25T11:47:41;35.00;29.80
30288;DHT22;17103;48.316;11.558;2022-07-25T11:50:07;35.10;29.80
30288;DHT22;17103;48.316;11.558;2022-07-25T11:52:36;35.10;29.40
30288;DHT22;17103;48.316;11.558;2022-07-25T11:55:07;35.10;29.20
30288;DHT22;17103;48.316;11.558;2022-07-25T11:57:36;35.10;28.80
30288;DHT22;17103;48.316;11.558;2022-07-25T12:00:07;35.10;29.00
30288;DHT22;17103;48.316;11.558;2022-07-25T12:02:33;35.20;29.40
30288;DHT22;17103;48.316;11.558;2022-07-25T12:05:08;35.30;29.00
30288;DHT22;17103;48.316;11.558;2022-07-25T12:12:47;35.50;28.90
30288;DHT22;17103;48.316;11.558;2022-07-25T12:15:15;35.50;28.80
30288;DHT22;17103;48.316;11.558;2022-07-25T12:17:42;35.50;29.10
30288;DHT22;17103;48.316;11.558;2022-07-25T12:20:20;35.60;28.90
30288;DHT22;17103;48.316;11.558;2022-07-25T12:22:48;35.70;29.30
30288;DHT22;17103;48.316;11.558;2022-07-25T12:25:14;35.70;29.10
30288;DHT22;17103;48.316;11.558;2022-07-25T12:27:41;35.80;28.60
30288;DHT22;17103;48.316;11.558;2022-07-25T12:30:08;35.80;28.90
30288;DHT22;17103;48.316;11.558;2022-07-25T12:32:35;35.90;28.50
30288;DHT22;17103;48.316;11.558;2022-07-25T12:35:03;35.90;28.50
30288;DHT22;17103;48.316;11.558;2022-07-25T12:37:28;35.90;27.90
30288;DHT22;17103;48.316;11.558;2022-07-25T12:39:54;36.00;28.50
30288;DHT22;17103;48.316;11.558;2022-07-25T12:42:20;36.00;27.90
30288;DHT22;17103;48.316;11.558;2022-07-25T12:44:46;36.10;28.10
30288;DHT22;17103;48.316;11.558;2022-07-25T12:47:11;36.20;28.60
30288;DHT22;17103;48.316;11.558;2022-07-25T12:49:37;36.20;28.40
30288;DHT22;17103;48.316;11.558;2022-07-25T12:52:04;36.30;27.80
30288;DHT22;17103;48.316;11.558;2022-07-25T12:54:30;36.40;27.60
30288;DHT22;17103;48.316;11.558;2022-07-25T12:56:56;36.40;27.20
30288;DHT22;17103;48.316;11.558;2022-07-25T12:59:22;36.40;27.10
30288;DHT22;17103;48.316;11.558;2022-07-25T13:01:48;36.40;26.80
30288;DHT22;17103;48.316;11.558;2022-07-25T13:04:13;36.50;27.20
30288;DHT22;17103;48.316;11.558;2022-07-25T13:06:39;36.50;26.70
30288;DHT22;17103;48.316;11.558;2022-07-25T13:09:05;36.60;26.80
30288;DHT22;17103;48.316;11.558;2022-07-25T13:11:31;36.60;26.90
30288;DHT22;17103;48.316;11.558;2022-07-25T13:13:56;36.70;26.80
30288;DHT22;17103;48.316;11.558;2022-07-25T13:16:22;36.70;26.30
30288;DHT22;17103;48.316;11.558;2022-07-25T13:18:48;36.70;26.60
30288;DHT22;17103;48.316;11.558;2022-07-25T13:21:14;36.70;26.90
30288;DHT22;17103;48.316;11.558;2022-07-25T13:23:40;36.80;26.80
30288;DHT22;17103;48.316;11.558;2022-07-25T13:26:06;36.90;26.20
30288;DHT22;17103;48.316;11.558;2022-07-25T13:28:32;36.90;26.20
30288;DHT22;17103;48.316;11.558;2022-07-25T13:30:59;37.00;25.70
30288;DHT22;17103;48.316;11.558;2022-07-25T13:33:27;37.00;25.80
30288;DHT22;17103;48.316;11.558;2022-07-25T13:35:53;37.00;25.40
30288;DHT22;17103;48.316;11.558;2022-07-25T13:38:19;37.00;25.60
30288;DHT22;17103;48.316;11.558;2022-07-25T13:40:44;37.10;25.90
30288;DHT22;17103;48.316;11.558;2022-07-25T13:43:12;37.20;26.10
30288;DHT22;17103;48.316;11.558;2022-07-25T13:45:39;37.20;25.90
30288;DHT22;17103;48.316;11.558;2022-07-25T13:48:05;37.40;26.00
30288;DHT22;17103;48.316;11.558;2022-07-25T13:50:32;37.40;25.60
30288;DHT22;17103;48.316;11.558;2022-07-25T13:52:58;37.50;25.40
30288;DHT22;17103;48.316;11.558;2022-07-25T13:55:27;37.60;25.30
30288;DHT22;17103;48.316;11.558;2022-07-25T13:57:53;37.60;25.70
30288;DHT22;17103;48.316;11.558;2022-07-25T14:00:19;37.60;25.80
30288;DHT22;17103;48.316;11.558;2022-07-25T14:02:44;37.70;25.30
30288;DHT22;17103;48.316;11.558;2022-07-25T14:05:11;37.70;25.40
30288;DHT22;17103;48.316;11.558;2022-07-25T14:07:37;37.70;24.70
30288;DHT22;17103;48.316;11.558;2022-07-25T14:10:04;37.80;24.90
30288;DHT22;17103;48.316;11.558;2022-07-25T14:12:33;37.80;24.70
30288;DHT22;17103;48.316;11.558;2022-07-25T14:14:59;37.90;24.60
30288;DHT22;17103;48.316;11.558;2022-07-25T14:17:25;38.00;24.80
30288;DHT22;17103;48.316;11.558;2022-07-25T14:19:51;38.00;24.90
30288;DHT22;17103;48.316;11.558;2022-07-25T14:22:17;38.10;25.00
30288;DHT22;17103;48.316;11.558;2022-07-25T14:24:43;38.10;24.90
30288;DHT22;17103;48.316;11.558;2022-07-25T14:27:11;38.10;24.50
30288;DHT22;17103;48.316;11.558;2022-07-25T14:29:37;38.10;23.80
30288;DHT22;17103;48.316;11.558;2022-07-25T14:32:04;38.10;23.80
30288;DHT22;17103;48.316;11.558;2022-07-25T14:34:31;38.10;23.80
30288;DHT22;17103;48.316;11.558;2022-07-25T14:36:57;38.20;24.40
30288;DHT22;17103;48.316;11.558;2022-07-25T14:39:22;38.20;24.30
30288;DHT22;17103;48.316;11.558;2022-07-25T14:41:48;38.20;24.10
30288;DHT22;17103;48.316;11.558;2022-07-25T14:44:14;38.30;23.30
30288;DHT22;17103;48.316;11.558;2022-07-25T14:46:39;38.30;23.60
30288;DHT22;17103;48.316;11.558;2022-07-25T14:49:07;38.30;23.80
30288;DHT22;17103;48.316;11.558;2022-07-25T14:51:36;38.40;23.70
30288;DHT22;17103;48.316;11.558;2022-07-25T14:54:01;38.40;23.80
30288;DHT22;17103;48.316;11.558;2022-07-25T14:56:27;38.40;23.60
30288;DHT22;17103;48.316;11.558;2022-07-25T14:58:53;38.40;23.70
30288;DHT22;17103;48.316;11.558;2022-07-25T15:01:19;38.50;24.00
30288;DHT22;17103;48.316;11.558;2022-07-25T15:03:47;38.50;23.60
30288;DHT22;17103;48.316;11.558;2022-07-25T15:06:14;38.50;23.20
30288;DHT22;17103;48.316;11.558;2022-07-25T15:08:41;38.50;23.20
30288;DHT22;17103;48.316;11.558;2022-07-25T15:11:07;38.50;23.20
30288;DHT22;17103;48.316;11.558;2022-07-25T15:13:33;38.50;23.30
30288;DHT22;17103;48.316;11.558;2022-07-25T15:16:00;38.50;22.80
30288;DHT22;17103;48.316;11.558;2022-07-25T15:18:27;38.50;21.90
30288;DHT22;17103;48.316;11.558;2022-07-25T15:20:52;38.40;22.10
30288;DHT22;17103;48.316;11.558;2022-07-25T15:23:20;38.40;22.50
30288;DHT22;17103;48.316;11.558;2022-07-25T15:25:50;38.40;22.70
30288;DHT22;17103;48.316;11.558;2022-07-25T15:28:16;38.40;22.70
30288;DHT22;17103;48.316;11.558;2022-07-25T15:30:42;38.50;23.30